createdAt,value
2024-02-04T00:01:29.603Z,3.78
2024-02-04T00:03:56.408Z,3.55
2024-02-04T00:06:23.203Z,3.80
2024-02-04T00:08:49.886Z,4.75
2024-02-04T00:11:18.059Z,3.95
2024-02-04T00:13:44.952Z,5.07
2024-02-04T00:16:11.657Z,3.88
2024-02-04T00:18:38.521Z,3.60
2024-02-04T00:21:05.724Z,3.53
2024-02-04T00:23:32.484Z,3.45
2024-02-04T00:25:59.289Z,3.92
2024-02-04T00:28:26.842Z,3.55
2024-02-04T00:30:56.317Z,3.72
2024-02-04T00:33:23.611Z,3.92
2024-02-04T00:35:50.569Z,3.90
2024-02-04T00:38:17.285Z,3.90
2024-02-04T00:40:43.984Z,3.38
2024-02-04T00:43:10.644Z,4.25
2024-02-04T00:45:37.513Z,3.95
2024-02-04T00:48:04.699Z,4.18
2024-02-04T00:50:31.576Z,4.10
2024-02-04T00:52:58.278Z,3.50
2024-02-04T00:55:25.156Z,4.47
2024-02-04T00:57:51.989Z,4.13
2024-02-04T01:00:18.948Z,4.00
2024-02-04T01:02:45.770Z,4.18
2024-02-04T01:05:13.915Z,4.43
2024-02-04T01:07:40.746Z,5.18
2024-02-04T01:10:09.960Z,4.80
2024-02-04T01:12:37.276Z,5.07
2024-02-04T01:15:06.386Z,5.55
2024-02-04T01:17:34.922Z,4.68
2024-02-04T01:20:01.863Z,5.18
2024-02-04T01:22:28.753Z,5.55
2024-02-04T01:24:55.943Z,4.90
2024-02-04T01:27:22.794Z,5.35
2024-02-04T01:29:49.514Z,4.70
2024-02-04T01:32:17.123Z,4.88
2024-02-04T01:34:43.892Z,5.30
2024-02-04T01:37:10.717Z,5.65
2024-02-04T01:39:37.430Z,4.45
2024-02-04T01:42:04.424Z,6.05
2024-02-04T01:44:31.103Z,5.40
2024-02-04T01:46:58.355Z,4.75
2024-02-04T01:49:25.505Z,4.80
2024-02-04T01:51:52.504Z,4.45
2024-02-04T01:54:19.311Z,5.32
2024-02-04T01:56:48.082Z,4.38
2024-02-04T01:59:14.953Z,5.28
2024-02-04T02:01:42.943Z,4.93
2024-02-04T02:04:09.849Z,4.95
2024-02-04T02:06:42.698Z,4.35
2024-02-04T02:09:13.460Z,5.05
2024-02-04T02:11:46.177Z,4.80
2024-02-04T02:14:15.891Z,4.95
2024-02-04T02:16:42.665Z,4.43
2024-02-04T02:19:49.236Z,4.45
2024-02-04T02:22:48.775Z,4.45
2024-02-04T02:25:16.181Z,5.05
2024-02-04T02:27:58.045Z,5.28
2024-02-04T02:30:24.789Z,4.73
2024-02-04T02:32:52.009Z,4.55
2024-02-04T02:35:19.127Z,4.18
2024-02-04T02:38:06.555Z,4.55
2024-02-04T02:43:14.061Z,4.28
2024-02-04T02:45:42.767Z,4.25
2024-02-04T02:48:10.261Z,4.30
2024-02-04T02:50:37.457Z,4.90
2024-02-04T02:53:04.347Z,4.60
2024-02-04T02:55:30.992Z,4.78
2024-02-04T02:57:57.688Z,5.38
2024-02-04T03:00:25.406Z,4.38
2024-02-04T03:02:52.155Z,5.05
2024-02-04T03:05:19.150Z,3.63
2024-02-04T03:07:45.920Z,3.80
2024-02-04T03:10:12.906Z,4.05
2024-02-04T03:12:39.711Z,3.88
2024-02-04T03:15:06.949Z,3.97
2024-02-04T03:17:33.680Z,5.15
2024-02-04T03:20:00.436Z,3.70
2024-02-04T03:22:27.225Z,3.35
2024-02-04T03:24:53.977Z,3.28
2024-02-04T03:27:21.356Z,3.60
2024-02-04T03:29:48.157Z,3.50
2024-02-04T03:32:14.999Z,3.50
2024-02-04T03:34:43.170Z,3.70
2024-02-04T03:37:10.025Z,3.90
2024-02-04T03:39:36.735Z,3.92
2024-02-04T03:42:03.509Z,3.45
2024-02-04T03:44:30.218Z,4.28
2024-02-04T03:46:56.870Z,3.83
2024-02-04T03:49:23.788Z,3.45
2024-02-04T03:51:50.578Z,3.42
2024-02-04T03:54:17.380Z,3.35
2024-02-04T03:56:44.084Z,3.10
2024-02-04T03:59:12.086Z,3.00
2024-02-04T04:01:39.287Z,2.97
2024-02-04T04:04:06.518Z,3.95
2024-02-04T04:06:33.644Z,4.13
2024-02-04T04:09:00.582Z,3.45
2024-02-04T04:11:27.278Z,3.25
2024-02-04T04:13:54.040Z,3.80
2024-02-04T04:16:23.334Z,3.40
2024-02-04T04:18:50.665Z,2.95
2024-02-04T04:21:17.810Z,2.88
2024-02-04T04:23:44.563Z,2.78
2024-02-04T04:26:11.262Z,3.10
2024-02-04T04:28:38.216Z,2.67
2024-02-04T04:31:05.222Z,2.42
2024-02-04T04:33:32.047Z,2.70
2024-02-04T04:35:58.823Z,2.90
2024-02-04T04:38:25.540Z,2.42
2024-02-04T04:40:52.240Z,2.67
2024-02-04T04:43:18.937Z,2.70
2024-02-04T04:45:45.998Z,2.50
2024-02-04T04:48:12.886Z,2.35
2024-02-04T04:50:39.554Z,2.00
2024-02-04T04:53:06.234Z,2.20
2024-02-04T04:55:32.892Z,1.60
2024-02-04T04:57:59.703Z,1.80
2024-02-04T05:00:26.409Z,2.20
2024-02-04T05:02:53.157Z,1.90
2024-02-04T05:05:19.946Z,1.85
2024-02-04T05:07:48.016Z,2.03
2024-02-04T05:10:15.038Z,2.25
2024-02-04T05:12:41.906Z,1.80
2024-02-04T05:15:09.574Z,1.73
2024-02-04T05:17:36.429Z,2.13
2024-02-04T05:20:05.170Z,2.05
2024-02-04T05:22:31.891Z,1.85
2024-02-04T05:24:59.059Z,2.00
2024-02-04T05:27:25.950Z,1.80
2024-02-04T05:29:52.677Z,1.83
2024-02-04T05:32:19.357Z,2.28
2024-02-04T05:34:46.302Z,2.15
2024-02-04T05:37:13.075Z,1.83
2024-02-04T05:39:39.866Z,2.60
2024-02-04T05:42:06.865Z,1.90
2024-02-04T05:44:33.523Z,2.58
2024-02-04T05:47:00.312Z,2.72
2024-02-04T05:49:27.290Z,3.13
2024-02-04T05:51:54.050Z,2.55
2024-02-04T05:54:20.711Z,2.53
2024-02-04T05:56:47.347Z,2.70
2024-02-04T05:59:14.461Z,3.08
2024-02-04T06:01:41.735Z,2.83
2024-02-04T06:04:08.852Z,3.10
2024-02-04T06:06:35.718Z,3.33
2024-02-04T06:09:02.544Z,2.22
2024-02-04T06:11:29.224Z,2.92
2024-02-04T06:13:57.551Z,2.88
2024-02-04T06:16:24.170Z,3.65
2024-02-04T06:18:51.029Z,2.42
2024-02-04T06:21:17.809Z,2.65
2024-02-04T06:23:44.446Z,2.92
2024-02-04T06:26:11.178Z,2.97
2024-02-04T06:28:38.014Z,2.92
2024-02-04T06:31:04.965Z,2.65
2024-02-04T06:33:31.939Z,2.33
2024-02-04T06:35:58.807Z,2.35
2024-02-04T06:38:25.503Z,2.53
2024-02-04T06:40:52.174Z,2.63
2024-02-04T06:43:18.976Z,3.58
2024-02-04T06:45:45.725Z,2.58
2024-02-04T06:48:13.939Z,2.28
2024-02-04T06:50:40.732Z,3.00
2024-02-04T06:53:07.458Z,2.85
2024-02-04T06:55:34.124Z,3.05
2024-02-04T06:58:00.895Z,2.40
2024-02-04T07:00:27.698Z,3.60
2024-02-04T07:02:54.513Z,3.60
2024-02-04T07:05:22.962Z,4.32
2024-02-04T07:07:50.665Z,4.75
2024-02-04T07:10:27.162Z,3.90
2024-02-04T07:12:53.947Z,4.05
2024-02-04T07:15:20.700Z,4.78
2024-02-04T07:17:47.419Z,5.25
2024-02-04T07:20:14.120Z,4.28
2024-02-04T07:22:40.866Z,5.55
2024-02-04T07:25:08.702Z,5.03
2024-02-04T07:27:36.594Z,5.75
2024-02-04T07:30:07.787Z,4.93
2024-02-04T07:32:37.669Z,4.50
2024-02-04T07:35:06.428Z,6.07
2024-02-04T07:37:33.323Z,4.75
2024-02-04T07:40:00.821Z,4.97
2024-02-04T07:42:28.532Z,4.43
2024-02-04T07:44:55.251Z,5.35
2024-02-04T07:47:22.402Z,5.25
2024-02-04T07:49:50.188Z,4.85
2024-02-04T07:52:17.173Z,4.28
2024-02-04T07:54:44.970Z,4.13
2024-02-04T07:57:11.783Z,5.18
2024-02-04T07:59:38.541Z,4.85
2024-02-04T08:02:05.789Z,4.85
2024-02-04T08:04:32.674Z,4.93
2024-02-04T08:06:59.585Z,4.07
2024-02-04T08:09:26.343Z,4.68
2024-02-04T08:11:53.833Z,3.67
2024-02-04T08:14:21.153Z,3.65
2024-02-04T08:16:49.406Z,3.75
2024-02-04T08:19:16.341Z,3.55
2024-02-04T08:21:46.502Z,3.95
2024-02-04T08:24:13.349Z,3.88
2024-02-04T08:26:40.097Z,6.28
2024-02-04T08:29:07.054Z,3.63
2024-02-04T08:31:36.873Z,2.88
2024-02-04T08:34:04.050Z,3.17
2024-02-04T08:36:32.055Z,4.22
2024-02-04T08:38:58.765Z,2.88
2024-02-04T08:41:25.484Z,2.17
2024-02-04T08:43:52.225Z,2.72
2024-02-04T08:46:19.046Z,4.07
2024-02-04T08:48:46.087Z,2.83
2024-02-04T08:51:14.181Z,2.72
2024-02-04T08:53:41.026Z,3.63
2024-02-04T08:56:08.081Z,3.33
2024-02-04T08:58:35.321Z,3.97
2024-02-04T09:01:02.024Z,3.33
2024-02-04T09:03:29.186Z,3.30
2024-02-04T09:05:56.008Z,3.72
2024-02-04T09:08:22.698Z,3.55
2024-02-04T09:10:49.376Z,2.65
2024-02-04T09:13:16.318Z,3.20
2024-02-04T09:15:43.142Z,4.20
2024-02-04T09:18:09.934Z,3.67
2024-02-04T09:20:37.151Z,4.20
2024-02-04T09:23:06.085Z,2.53
2024-02-04T09:25:32.874Z,2.83
2024-02-04T09:27:59.920Z,2.70
2024-02-04T09:30:27.079Z,3.08
2024-02-04T09:32:53.894Z,3.40
2024-02-04T09:35:21.118Z,3.15
2024-02-04T09:38:01.259Z,2.72
2024-02-04T09:40:28.435Z,2.40
2024-02-04T09:42:55.341Z,2.90
2024-02-04T09:45:22.147Z,3.40
2024-02-04T09:47:48.964Z,3.08
2024-02-04T09:50:19.968Z,2.83
2024-02-04T09:52:51.026Z,3.03
2024-02-04T09:55:30.482Z,3.90
2024-02-04T09:57:57.461Z,3.65
2024-02-04T10:00:24.354Z,3.53
2024-02-04T10:02:51.202Z,3.92
2024-02-04T10:05:18.126Z,4.65
2024-02-04T10:07:45.061Z,3.67
2024-02-04T10:10:11.931Z,3.33
2024-02-04T10:12:39.953Z,3.55
2024-02-04T10:15:07.643Z,4.05
2024-02-04T10:17:34.479Z,5.40
2024-02-04T10:20:01.975Z,4.50
2024-02-04T10:22:29.635Z,4.28
2024-02-04T10:25:09.290Z,3.40
2024-02-04T10:27:37.747Z,4.15
2024-02-04T10:30:05.825Z,5.70
2024-02-04T10:32:32.665Z,4.20
2024-02-04T10:35:00.932Z,3.58
2024-02-04T10:37:30.619Z,4.53
2024-02-04T10:39:58.094Z,4.10
2024-02-04T10:42:27.469Z,3.53
2024-02-04T10:44:55.086Z,3.83
2024-02-04T10:47:24.793Z,4.82
2024-02-04T10:49:54.213Z,3.85
2024-02-04T10:52:21.372Z,3.22
2024-02-04T10:54:48.662Z,3.25
2024-02-04T10:57:15.601Z,3.42
2024-02-04T10:59:42.329Z,2.95
2024-02-04T11:02:09.291Z,3.78
2024-02-04T11:04:36.089Z,3.28
2024-02-04T11:07:03.021Z,2.58
2024-02-04T11:09:30.114Z,3.55
2024-02-04T11:11:57.462Z,3.83
2024-02-04T11:14:24.267Z,2.38
2024-02-04T11:17:16.324Z,2.63
2024-02-04T11:19:49.408Z,4.38
2024-02-04T11:22:25.624Z,2.60
2024-02-04T11:25:03.671Z,1.67
2024-02-04T11:27:30.472Z,2.13
2024-02-04T11:29:57.270Z,2.10
2024-02-04T11:32:25.844Z,2.45
2024-02-04T11:34:56.177Z,2.47
2024-02-04T11:37:23.257Z,1.67
2024-02-04T11:39:51.774Z,2.15
2024-02-04T11:42:18.926Z,1.65
2024-02-04T11:44:46.390Z,1.52
2024-02-04T11:47:23.280Z,1.90
2024-02-04T11:49:58.177Z,1.77
2024-02-04T11:52:27.882Z,1.25
2024-02-04T11:54:54.729Z,1.60
2024-02-04T11:57:21.760Z,1.45
2024-02-04T11:59:48.669Z,1.48
2024-02-04T12:02:18.590Z,0.95
2024-02-04T12:04:45.943Z,1.08
2024-02-04T12:07:12.802Z,1.58
2024-02-04T12:09:39.593Z,1.40
2024-02-04T12:12:06.683Z,1.67
2024-02-04T12:14:33.604Z,1.50
2024-02-04T12:17:00.454Z,1.70
2024-02-04T12:19:28.082Z,1.73
2024-02-04T12:21:56.095Z,1.70
2024-02-04T12:24:22.877Z,1.40
2024-02-04T12:26:49.480Z,1.10
2024-02-04T12:29:16.205Z,1.77
2024-02-04T12:31:43.213Z,1.00
2024-02-04T12:34:13.131Z,1.42
2024-02-04T12:36:39.837Z,1.50
2024-02-04T12:39:10.777Z,1.27
2024-02-04T12:41:37.405Z,1.00
2024-02-04T12:44:06.044Z,1.23
2024-02-04T12:46:32.794Z,2.30
2024-02-04T12:49:02.997Z,1.58
2024-02-04T12:51:32.883Z,1.60
2024-02-04T12:54:14.718Z,1.00
2024-02-04T12:56:57.150Z,1.20
2024-02-04T13:02:01.615Z,1.67
2024-02-04T13:04:34.179Z,1.23
2024-02-04T13:07:01.050Z,1.30
2024-02-04T13:09:27.793Z,1.70
2024-02-04T13:12:04.685Z,2.13
2024-02-04T13:14:31.435Z,1.80
2024-02-04T13:16:58.769Z,1.88
2024-02-04T13:19:25.679Z,1.17
2024-02-04T13:21:52.546Z,1.23
2024-02-04T13:24:19.251Z,2.58
2024-02-04T13:26:45.925Z,1.42
2024-02-04T13:29:12.845Z,1.90
2024-02-04T13:31:39.670Z,1.77
2024-02-04T13:34:06.567Z,1.85
2024-02-04T13:36:33.787Z,1.50
2024-02-04T13:39:00.575Z,2.00
2024-02-04T13:41:27.619Z,1.50
2024-02-04T13:43:54.440Z,1.40
2024-02-04T13:46:21.416Z,2.28
2024-02-04T13:48:48.226Z,1.90
2024-02-04T13:51:17.704Z,1.67
2024-02-04T13:53:49.276Z,1.40
2024-02-04T13:56:19.476Z,1.75
2024-02-04T13:58:46.839Z,1.30
2024-02-04T14:01:16.297Z,1.83
2024-02-04T14:03:43.098Z,1.70
2024-02-04T14:06:10.236Z,1.40
2024-02-04T14:08:36.925Z,1.92
2024-02-04T14:11:03.629Z,1.50
2024-02-04T14:13:30.686Z,1.85
2024-02-04T14:15:57.550Z,1.50
2024-02-04T14:18:24.347Z,1.83
2024-02-04T14:20:51.001Z,2.17
2024-02-04T14:23:17.660Z,1.83
2024-02-04T14:25:44.410Z,1.77
2024-02-04T14:28:11.132Z,1.33
2024-02-04T14:30:38.089Z,1.70
2024-02-04T14:33:05.287Z,1.48
2024-02-04T14:35:32.008Z,1.42
2024-02-04T14:37:59.252Z,1.77
2024-02-04T14:40:26.034Z,1.77
2024-02-04T14:42:52.833Z,1.58
2024-02-04T14:45:19.880Z,1.38
2024-02-04T14:47:46.621Z,1.50
2024-02-04T14:50:14.365Z,1.58
2024-02-04T14:52:41.141Z,1.63
2024-02-04T14:55:11.140Z,1.90
2024-02-04T14:57:38.041Z,1.80
2024-02-04T15:00:05.530Z,1.38
2024-02-04T15:02:32.356Z,1.90
2024-02-04T15:05:00.013Z,2.25
2024-02-04T15:07:26.791Z,2.15
2024-02-04T15:09:54.667Z,1.83
2024-02-04T15:12:21.747Z,3.78
2024-02-04T15:14:48.578Z,1.98
2024-02-04T15:17:15.546Z,1.88
2024-02-04T15:19:42.717Z,2.13
2024-02-04T15:22:09.990Z,1.90
2024-02-04T15:24:37.088Z,1.60
2024-02-04T15:27:06.078Z,1.70
2024-02-04T15:29:37.493Z,1.38
2024-02-04T15:32:04.561Z,1.77
2024-02-04T15:34:33.428Z,2.00
2024-02-04T15:37:00.657Z,1.90
2024-02-04T15:39:27.432Z,1.40
2024-02-04T15:41:54.237Z,1.60
2024-02-04T15:44:22.926Z,1.63
2024-02-04T15:46:51.928Z,2.45
2024-02-04T15:49:19.626Z,1.70
2024-02-04T15:51:47.367Z,1.73
2024-02-04T15:54:14.437Z,2.65
2024-02-04T15:56:46.278Z,1.20
2024-02-04T15:59:14.348Z,1.48
2024-02-04T16:01:41.889Z,1.20
2024-02-04T16:04:09.441Z,2.05
2024-02-04T16:06:36.763Z,1.38
2024-02-04T16:09:09.131Z,0.90
2024-02-04T16:12:00.279Z,1.65
2024-02-04T16:14:27.022Z,1.48
2024-02-04T16:17:04.859Z,1.88
2024-02-04T16:19:32.806Z,1.95
2024-02-04T16:21:59.585Z,2.08
2024-02-04T16:24:26.559Z,5.07
2024-02-04T16:26:53.301Z,1.33
2024-02-04T16:29:20.064Z,1.58
2024-02-04T16:31:46.772Z,1.35
2024-02-04T16:34:13.655Z,1.30
2024-02-04T16:36:41.719Z,1.50
2024-02-04T16:39:08.881Z,1.17
2024-02-04T16:41:35.594Z,1.65
2024-02-04T16:44:03.980Z,1.40
2024-02-04T16:46:30.648Z,1.10
2024-02-04T16:48:57.435Z,2.20
2024-02-04T16:51:24.189Z,0.90
2024-02-04T16:53:50.875Z,1.13
2024-02-04T16:56:20.452Z,2.50
2024-02-04T16:58:47.200Z,2.40
2024-02-04T17:01:13.990Z,2.10
2024-02-04T17:03:41.247Z,2.35
2024-02-04T17:06:09.483Z,1.65
2024-02-04T17:08:36.482Z,1.42
2024-02-04T17:11:03.368Z,1.75
2024-02-04T17:13:30.270Z,2.10
2024-02-04T17:15:57.313Z,1.20
2024-02-04T17:18:31.926Z,1.83
2024-02-04T17:20:59.386Z,1.63
2024-02-04T17:23:27.157Z,1.30
2024-02-04T17:26:00.475Z,1.73
2024-02-04T17:28:27.476Z,1.10
2024-02-04T17:30:54.312Z,1.27
2024-02-04T17:33:21.407Z,1.50
2024-02-04T17:35:49.466Z,1.70
2024-02-04T17:38:16.259Z,1.80
2024-02-04T17:40:43.266Z,1.25
2024-02-04T17:43:12.230Z,2.28
2024-02-04T17:45:39.339Z,1.52
2024-02-04T17:48:06.985Z,2.95
2024-02-04T17:50:34.307Z,1.58
2024-02-04T17:53:00.941Z,2.13
2024-02-04T17:55:27.821Z,2.85
2024-02-04T17:57:57.195Z,2.03
2024-02-04T18:00:23.904Z,1.67
2024-02-04T18:02:50.615Z,2.00
2024-02-04T18:05:18.347Z,2.35
2024-02-04T18:07:45.826Z,2.83
2024-02-04T18:10:12.898Z,1.92
2024-02-04T18:12:40.561Z,2.10
2024-02-04T18:15:07.759Z,2.63
2024-02-04T18:17:35.410Z,1.90
2024-02-04T18:20:06.494Z,3.58
2024-02-04T18:22:33.553Z,2.50
2024-02-04T18:25:00.427Z,2.40
2024-02-04T18:27:27.484Z,1.92
2024-02-04T18:29:55.221Z,3.10
2024-02-04T18:32:24.553Z,2.17
2024-02-04T18:34:52.861Z,1.65
2024-02-04T18:37:23.407Z,2.25
2024-02-04T18:39:50.365Z,1.77
2024-02-04T18:42:17.315Z,1.55
2024-02-04T18:44:44.657Z,1.85
2024-02-04T18:47:11.470Z,2.53
2024-02-04T18:49:38.677Z,2.03
2024-02-04T18:52:07.121Z,1.98
2024-02-04T18:54:36.918Z,2.72
2024-02-04T18:57:04.947Z,1.90
2024-02-04T18:59:31.688Z,1.73
2024-02-04T19:01:59.505Z,1.80
2024-02-04T19:04:28.838Z,1.77
2024-02-04T19:06:55.953Z,2.10
2024-02-04T19:09:23.510Z,3.13
2024-02-04T19:11:51.454Z,1.55
2024-02-04T19:14:21.132Z,2.00
2024-02-04T19:16:47.976Z,1.50
2024-02-04T19:19:15.728Z,2.47
2024-02-04T19:21:45.560Z,2.20
2024-02-04T19:24:12.265Z,2.00
2024-02-04T19:26:38.944Z,2.70
2024-02-04T19:29:05.614Z,1.83
2024-02-04T19:31:32.258Z,2.47
2024-02-04T19:33:59.102Z,2.25
2024-02-04T19:36:26.303Z,2.30
2024-02-04T19:38:52.982Z,1.70
2024-02-04T19:41:19.645Z,1.58
2024-02-04T19:43:46.333Z,1.75
2024-02-04T19:46:13.060Z,1.70
2024-02-04T19:48:40.854Z,1.83
2024-02-04T19:51:07.675Z,1.73
2024-02-04T19:53:36.158Z,2.05
2024-02-04T19:56:03.218Z,1.42
2024-02-04T19:58:29.849Z,1.35
2024-02-04T20:00:56.608Z,1.45
2024-02-04T20:03:23.613Z,1.80
2024-02-04T20:05:50.316Z,1.80
2024-02-04T20:08:16.985Z,2.00
2024-02-04T20:10:43.635Z,2.00
2024-02-04T20:13:10.318Z,1.35
2024-02-04T20:15:37.042Z,1.48
2024-02-04T20:18:04.320Z,1.23
2024-02-04T20:20:31.157Z,1.02
2024-02-04T20:22:58.442Z,1.30
2024-02-04T20:25:28.827Z,1.75
2024-02-04T20:27:57.415Z,1.15
2024-02-04T20:30:30.116Z,2.10
2024-02-04T20:32:57.533Z,1.23
2024-02-04T20:35:27.443Z,2.20
2024-02-04T20:37:57.129Z,1.33
2024-02-04T20:40:25.990Z,1.90
2024-02-04T20:42:52.745Z,1.17
2024-02-04T20:45:20.256Z,1.30
2024-02-04T20:47:48.407Z,2.17
2024-02-04T20:50:15.658Z,1.77
2024-02-04T20:52:42.419Z,1.25
2024-02-04T20:55:09.542Z,1.42
2024-02-04T20:57:36.576Z,1.63
2024-02-04T21:00:03.504Z,1.20
2024-02-04T21:02:30.268Z,1.58
2024-02-04T21:04:57.560Z,1.30
2024-02-04T21:07:24.527Z,1.48
2024-02-04T21:09:51.969Z,1.33
2024-02-04T21:12:19.210Z,1.30
2024-02-04T21:14:45.991Z,1.13
2024-02-04T21:17:12.886Z,1.38
2024-02-04T21:19:39.690Z,0.90
2024-02-04T21:22:06.465Z,1.13
2024-02-04T21:24:33.326Z,1.10
2024-02-04T21:27:00.797Z,1.20
2024-02-04T21:29:27.562Z,1.10
2024-02-04T21:31:56.234Z,1.73
2024-02-04T21:34:23.347Z,1.20
2024-02-04T21:36:50.307Z,1.15
2024-02-04T21:39:19.185Z,1.60
2024-02-04T21:41:45.863Z,1.10
2024-02-04T21:44:14.094Z,1.60
2024-02-04T21:46:47.037Z,1.13
2024-02-04T21:49:14.055Z,1.05
2024-02-04T21:51:40.954Z,1.50
2024-02-04T21:54:07.654Z,1.33
2024-02-04T21:56:34.382Z,0.95
2024-02-04T21:59:01.557Z,1.30
2024-02-04T22:01:28.490Z,1.15
2024-02-04T22:03:55.264Z,1.00
2024-02-04T22:06:22.059Z,1.00
2024-02-04T22:08:49.004Z,1.13
2024-02-04T22:11:16.079Z,1.20
2024-02-04T22:13:42.767Z,1.17
2024-02-04T22:16:10.060Z,2.55
2024-02-04T22:18:37.071Z,1.00
2024-02-04T22:21:20.504Z,2.00
2024-02-04T22:23:52.369Z,2.13
2024-02-04T22:26:19.075Z,1.23
2024-02-04T22:28:45.716Z,0.85
2024-02-04T22:31:12.422Z,1.55
2024-02-04T22:33:39.160Z,1.55
2024-02-04T22:36:07.168Z,0.90
2024-02-04T22:38:34.213Z,1.10
2024-02-04T22:41:00.849Z,0.90
2024-02-04T22:43:27.902Z,0.80
2024-02-04T22:45:54.763Z,1.08
2024-02-04T22:48:21.491Z,1.60
2024-02-04T22:50:48.362Z,1.13
2024-02-04T22:53:15.812Z,1.40
2024-02-04T22:55:42.509Z,0.88
2024-02-04T22:58:09.231Z,1.10
2024-02-04T23:00:39.522Z,0.98
2024-02-04T23:03:06.922Z,0.90
2024-02-04T23:05:33.719Z,1.00
2024-02-04T23:08:00.836Z,1.02
2024-02-04T23:10:28.032Z,1.25
2024-02-04T23:12:56.042Z,1.00
2024-02-04T23:15:22.895Z,0.98
2024-02-04T23:17:50.673Z,1.38
2024-02-04T23:20:17.807Z,0.98
2024-02-04T23:22:44.529Z,1.08
2024-02-04T23:25:11.207Z,1.98
2024-02-04T23:27:38.145Z,1.42
2024-02-04T23:30:07.299Z,0.90
2024-02-04T23:32:34.091Z,1.13
2024-02-04T23:35:00.979Z,1.15
2024-02-04T23:37:28.042Z,0.70
2024-02-04T23:39:54.832Z,1.27
2024-02-04T23:42:26.945Z,1.10
2024-02-04T23:44:53.786Z,0.82
2024-02-04T23:47:21.129Z,1.13
2024-02-04T23:49:47.976Z,0.88
2024-02-04T23:52:14.719Z,0.70
2024-02-04T23:54:41.475Z,1.13
2024-02-04T23:57:08.159Z,2.50
2024-02-04T23:59:34.848Z,2.13
